KLM96C LHBP-EHAM
Flight info
| Callsign | KLM96C |
|---|---|
| Flight time | N/A |
| Altitude | 38000 |
| Route | GILEP DCT ZOLKU DCT BEGLA DCT DITIS DCT VARIK DCT KATCE DCT NORKU |
| Aircraft | B738/M-SDE2E3FGHIRWXY/LB1 |
Departure
| Time | 2026-05-06 20:04 |
|---|---|
| Airport | Budapest Liszt Ferenc International Airport (LHBP) |
Arrival
| Time | N/A |
|---|---|
| Airport | Amsterdam Airport Schiphol (EHAM) |
| Time | Latitude | Longitude | Altitude | Speed | Heading |
|---|---|---|---|---|---|
| 2026-05-06 19:44 | 47.43296 | 19.25701 | 480 ft | 0 kts | 39° |
| 2026-05-06 19:53 | 47.43288 | 19.25691 | 480 ft | 3 kts | 39° |
| 2026-05-06 19:53 | 47.43272 | 19.25672 | 477 ft | 3 kts | 37° |
| 2026-05-06 19:54 | 47.43255 | 19.25655 | 481 ft | 3 kts | 26° |
| 2026-05-06 19:54 | 47.43236 | 19.25644 | 472 ft | 3 kts | 9° |
| 2026-05-06 19:54 | 47.43217 | 19.25643 | 473 ft | 3 kts | 335° |
| 2026-05-06 19:54 | 47.43206 | 19.25654 | 481 ft | 1 kts | 311° |
| 2026-05-06 19:55 | 47.43205 | 19.25657 | 476 ft | 0 kts | 311° |
| 2026-05-06 19:57 | 47.43208 | 19.25652 | 478 ft | 1 kts | 312° |
| 2026-05-06 19:58 | 47.43220 | 19.25632 | 480 ft | 4 kts | 311° |
| 2026-05-06 19:58 | 47.43251 | 19.25578 | 479 ft | 9 kts | 311° |
| 2026-05-06 19:58 | 47.43294 | 19.25507 | 475 ft | 10 kts | 311° |
| 2026-05-06 19:58 | 47.43343 | 19.25428 | 480 ft | 11 kts | 313° |
| 2026-05-06 19:59 | 47.43399 | 19.25342 | 475 ft | 12 kts | 317° |
| 2026-05-06 19:59 | 47.43482 | 19.25358 | 477 ft | 14 kts | 39° |
| 2026-05-06 19:59 | 47.43557 | 19.25457 | 483 ft | 15 kts | 42° |
| 2026-05-06 19:59 | 47.43632 | 19.25560 | 491 ft | 15 kts | 41° |
| 2026-05-06 20:00 | 47.43707 | 19.25662 | 482 ft | 15 kts | 43° |
| 2026-05-06 20:00 | 47.43787 | 19.25769 | 487 ft | 16 kts | 42° |
| 2026-05-06 20:00 | 47.43876 | 19.25887 | 487 ft | 18 kts | 42° |
| 2026-05-06 20:00 | 47.43958 | 19.25997 | 483 ft | 12 kts | 42° |
| 2026-05-06 20:01 | 47.44035 | 19.26006 | 484 ft | 13 kts | 321° |
| 2026-05-06 20:01 | 47.44100 | 19.25912 | 484 ft | 14 kts | 311° |
| 2026-05-06 20:01 | 47.44174 | 19.25792 | 483 ft | 18 kts | 312° |
| 2026-05-06 20:01 | 47.44259 | 19.25653 | 487 ft | 18 kts | 311° |
| 2026-05-06 20:02 | 47.44355 | 19.25560 | 483 ft | 17 kts | 350° |
| 2026-05-06 20:02 | 47.44459 | 19.25602 | 486 ft | 15 kts | 40° |
| 2026-05-06 20:02 | 47.44506 | 19.25747 | 486 ft | 13 kts | 86° |
| 2026-05-06 20:02 | 47.44482 | 19.25854 | 483 ft | 10 kts | 127° |
| 2026-05-06 20:03 | 47.44467 | 19.25880 | 482 ft | 0 kts | 132° |
| 2026-05-06 20:03 | 47.44377 | 19.26024 | 490 ft | 42 kts | 132° |
| 2026-05-06 20:03 | 47.44049 | 19.26554 | 483 ft | 97 kts | 132° |
| 2026-05-06 20:04 | 47.43473 | 19.27476 | 488 ft | 145 kts | 132° |
| 2026-05-06 20:04 | 47.42756 | 19.28643 | 812 ft | 155 kts | 133° |
| 2026-05-06 20:04 | 47.42034 | 19.29911 | 1225 ft | 169 kts | 121° |
| 2026-05-06 20:04 | 47.41471 | 19.31506 | 1716 ft | 178 kts | 118° |
| 2026-05-06 20:05 | 47.40893 | 19.33125 | 2392 ft | 183 kts | 120° |
| 2026-05-06 20:05 | 47.40226 | 19.34841 | 2900 ft | 200 kts | 122° |
| 2026-05-06 20:05 | 47.39506 | 19.36686 | 3439 ft | 216 kts | 121° |
| 2026-05-06 20:05 | 47.38769 | 19.38704 | 3987 ft | 235 kts | 121° |
| 2026-05-06 20:06 | 47.37737 | 19.40628 | 4676 ft | 246 kts | 148° |
| 2026-05-06 20:06 | 47.36091 | 19.41309 | 5442 ft | 255 kts | 185° |
| 2026-05-06 20:06 | 47.34459 | 19.40327 | 6345 ft | 261 kts | 220° |
| 2026-05-06 20:06 | 47.33430 | 19.38126 | 7357 ft | 262 kts | 243° |
| 2026-05-06 20:07 | 47.32591 | 19.35730 | 8278 ft | 268 kts | 240° |
| 2026-05-06 20:07 | 47.31666 | 19.33346 | 9174 ft | 273 kts | 238° |
| 2026-05-06 20:07 | 47.30693 | 19.30885 | 9983 ft | 281 kts | 238° |
| 2026-05-06 20:07 | 47.29681 | 19.28339 | 10599 ft | 297 kts | 238° |
| 2026-05-06 20:08 | 47.28607 | 19.25637 | 11120 ft | 314 kts | 239° |
| 2026-05-06 20:08 | 47.27475 | 19.22787 | 11598 ft | 331 kts | 239° |
| 2026-05-06 20:08 | 47.26289 | 19.19798 | 12253 ft | 342 kts | 239° |
| 2026-05-06 20:08 | 47.25081 | 19.16756 | 13063 ft | 347 kts | 239° |
| 2026-05-06 20:09 | 47.23851 | 19.13669 | 13896 ft | 352 kts | 239° |
| 2026-05-06 20:09 | 47.22603 | 19.10542 | 14730 ft | 356 kts | 239° |
| 2026-05-06 20:09 | 47.21344 | 19.07375 | 15545 ft | 361 kts | 240° |
| 2026-05-06 20:09 | 47.20508 | 19.03892 | 16357 ft | 366 kts | 262° |
| 2026-05-06 20:10 | 47.20670 | 19.00143 | 17153 ft | 374 kts | 283° |
| 2026-05-06 20:10 | 47.21736 | 18.96629 | 17903 ft | 381 kts | 302° |
| 2026-05-06 20:10 | 47.23331 | 18.93482 | 18618 ft | 387 kts | 306° |
| 2026-05-06 20:10 | 47.25007 | 18.90355 | 19320 ft | 391 kts | 307° |
| 2026-05-06 20:11 | 47.26718 | 18.87217 | 20027 ft | 395 kts | 307° |
| 2026-05-06 20:11 | 47.28435 | 18.84040 | 20701 ft | 399 kts | 307° |
| 2026-05-06 20:11 | 47.30157 | 18.80798 | 21366 ft | 403 kts | 306° |
| 2026-05-06 20:11 | 47.31880 | 18.77524 | 21990 ft | 406 kts | 306° |
| 2026-05-06 20:12 | 47.33596 | 18.74265 | 22578 ft | 410 kts | 306° |
| 2026-05-06 20:12 | 47.35356 | 18.70936 | 23159 ft | 413 kts | 306° |